Time;durP1;ratioP1;P1;durP2;ratioP2;P2;SDS_P1;SDS_P2;PMS_P1;PMS_P2;Temp;Humidity;BMP_temperature;BMP_pressure;BME280_temperature;BME280_humidity;BME280_pressure;Samples;Min_cycle;Max_cycle;Signal;HPM_P1;HPM_P2
2022/04/06 00:00:06;;;;;;;42.88;26.38;;;;;;;28.80;68.52;101123.53;5026483;28;70629;-34
2022/04/06 00:02:39;;;;;;;38.25;26.80;;;;;;;28.84;70.13;101138.31;5001688;28;65579;-40
2022/04/06 00:05:11;;;;;;;43.13;29.00;;;;;;;28.57;70.50;101090.59;5021095;28;68790;-35
2022/04/06 00:07:43;;;;;;;51.20;29.77;;;;;;;28.95;70.53;101143.13;5020390;28;66720;-34
2022/04/06 00:10:14;;;;;;;41.40;27.05;;;;;;;29.01;70.75;101148.78;5026203;28;70402;-35
2022/04/06 00:12:44;;;;;;;41.22;27.52;;;;;;;28.98;70.09;101130.28;5017181;28;66579;-35
2022/04/06 00:15:16;;;;;;;66.03;42.87;;;;;;;29.03;70.37;101138.56;4999183;28;69477;-34
2022/04/06 00:17:47;;;;;;;76.82;46.95;;;;;;;29.05;70.50;101147.34;4998335;28;66493;-35
2022/04/06 00:20:19;;;;;;;77.53;46.67;;;;;;;29.12;69.98;101156.31;5005037;28;69539;-34
2022/04/06 00:22:49;;;;;;;74.85;48.88;;;;;;;29.10;70.29;101150.28;5018435;28;66330;-36
2022/04/06 00:25:20;;;;;;;65.05;46.00;;;;;;;29.07;70.36;101142.59;5016576;28;70320;-34
2022/04/06 00:27:51;;;;;;;73.13;46.30;;;;;;;29.15;69.53;101153.22;5020401;28;67065;-34
2022/04/06 00:30:21;;;;;;;65.00;44.47;;;;;;;29.20;71.13;101161.56;5026709;28;69721;-35
2022/04/06 00:32:52;;;;;;;59.92;42.45;;;;;;;29.24;70.17;101165.50;5004711;28;65734;-43
2022/04/06 00:35:28;;;;;;;62.83;42.25;;;;;;;29.15;71.17;101153.22;5020279;28;70687;-35
2022/04/06 00:38:02;;;;;;;57.85;38.08;;;;;;;29.25;71.00;101175.25;5020522;28;65769;-34
2022/04/06 00:40:34;;;;;;;54.08;38.63;;;;;;;29.27;70.43;101177.78;5020353;28;70124;-35
2022/04/06 00:43:11;;;;;;;51.20;35.78;;;;;;;29.42;67.82;101174.91;5002132;28;65540;-35
2022/04/06 00:45:43;;;;;;;46.67;32.75;;;;;;;29.49;66.61;101175.78;5004127;28;69972;-35
2022/04/06 00:48:14;;;;;;;47.83;31.08;;;;;;;29.53;65.86;101179.72;5020980;28;66724;-36
2022/04/06 00:50:45;;;;;;;43.15;30.55;;;;;;;29.63;65.86;101196.41;5020865;28;69732;-34
2022/04/06 00:53:15;;;;;;;44.63;31.13;;;;;;;29.68;65.33;101202.06;5004600;28;66743;-34
2022/04/06 00:55:46;;;;;;;38.95;29.05;;;;;;;29.71;65.30;101201.63;5019398;28;71109;-34
2022/04/06 00:58:18;;;;;;;38.92;29.13;;;;;;;29.74;65.05;101195.00;5001088;28;67013;-34
2022/04/06 01:00:48;;;;;;;32.97;27.23;;;;;;;29.80;64.44;101205.81;5002316;28;69096;-34
2022/04/06 01:03:22;;;;;;;38.92;29.05;;;;;;;29.84;64.19;101207.06;5000288;28;66262;-35
2022/04/06 01:05:53;;;;;;;34.55;29.23;;;;;;;29.83;64.04;101193.75;4983155;28;69943;-35
2022/04/06 01:08:24;;;;;;;34.30;28.15;;;;;;;29.82;64.24;101187.50;5001468;28;66432;-34
2022/04/06 01:10:54;;;;;;;32.05;27.90;;;;;;;29.96;63.75;101192.94;4999044;28;70405;-37
2022/04/06 01:13:27;;;;;;;34.10;27.77;;;;;;;29.90;63.76;101185.66;5001107;28;65240;-34
2022/04/06 01:15:58;;;;;;;38.63;27.35;;;;;;;29.97;63.70;101194.59;5000217;28;70234;-35
2022/04/06 01:18:32;;;;;;;35.92;27.10;;;;;;;29.80;63.20;101165.25;5000028;28;66301;-35
2022/04/06 01:21:04;;;;;;;32.28;27.55;;;;;;;30.08;63.27;101204.81;4998616;28;70494;-35
2022/04/06 01:23:35;;;;;;;33.00;26.90;;;;;;;30.01;63.02;101204.81;5020795;28;66096;-34
2022/04/06 01:26:05;;;;;;;41.28;26.25;;;;;;;30.11;63.45;101207.09;5020597;28;70574;-35
2022/04/06 01:28:37;;;;;;;36.80;26.38;;;;;;;30.08;63.17;101196.69;5001921;28;66032;-35
2022/04/06 01:31:08;;;;;;;32.90;25.70;;;;;;;30.14;62.83;101206.66;4996118;28;70551;-34
2022/04/06 01:33:39;;;;;;;31.63;24.70;;;;;;;30.17;62.67;101203.56;5001659;28;65438;-34
2022/04/06 01:36:10;;;;;;;27.83;24.37;;;;;;;30.11;63.25;101182.75;4980554;28;70081;-35
2022/04/06 01:38:41;;;;;;;25.88;23.08;;;;;;;30.19;62.54;101190.66;5000278;28;65299;-34
2022/04/06 01:41:12;;;;;;;32.35;25.10;;;;;;;30.11;62.49;101177.31;5001254;28;70037;-35
2022/04/06 01:43:42;;;;;;;28.60;23.58;;;;;;;30.13;62.25;101169.84;4980350;28;67065;-34
2022/04/06 01:46:13;;;;;;;32.47;24.88;;;;;;;30.31;62.33;101203.59;4995107;28;70109;-34
2022/04/06 01:54:29;;;;;;;27.33;23.10;;;;;;;30.18;62.00;101180.88;5061024;27;70551;-34
2022/04/06 01:57:00;;;;;;;33.83;22.10;;;;;;;30.33;61.62;101193.38;5052678;28;65835;-34
2022/04/06 01:59:31;;;;;;;27.17;21.42;;;;;;;30.41;61.94;101201.28;5056163;28;71359;-35
2022/04/06 02:02:04;;;;;;;25.70;21.20;;;;;;;30.45;61.37;101197.13;5056394;28;66178;-34
2022/04/06 02:04:35;;;;;;;26.05;21.30;;;;;;;30.45;61.73;101202.53;5055426;28;69209;-34
2022/04/06 02:07:06;;;;;;;23.00;20.58;;;;;;;30.49;61.51;101211.91;5056491;28;65815;-35
2022/04/06 02:09:39;;;;;;;25.77;20.10;;;;;;;30.53;61.39;101207.72;5056882;27;70083;-35
2022/04/06 02:12:11;;;;;;;27.60;21.05;;;;;;;30.55;60.73;101202.94;5053802;28;66205;-36
2022/04/06 02:14:42;;;;;;;25.10;19.90;;;;;;;30.54;61.26;101201.28;5056882;28;69989;-35
2022/04/06 02:17:13;;;;;;;23.53;18.77;;;;;;;30.58;60.96;101207.09;5054730;28;65850;-34
2022/04/06 02:19:44;;;;;;;22.77;19.55;;;;;;;30.57;60.78;101192.75;5055475;28;69613;-34
2022/04/06 02:22:15;;;;;;;23.27;19.83;;;;;;;30.63;60.74;101205.44;5062236;27;65419;-35
2022/04/06 02:24:46;;;;;;;23.60;19.30;;;;;;;30.66;60.38;101198.75;5075908;27;70242;-35
2022/04/06 02:27:16;;;;;;;23.02;19.77;;;;;;;30.58;60.14;101188.97;5076553;27;67374;-34
2022/04/06 02:29:47;;;;;;;18.80;16.80;;;;;;;30.71;60.35;101197.09;5076588;27;70387;-34
2022/04/06 02:32:17;;;;;;;23.48;18.25;;;;;;;30.39;60.31;101138.41;5075594;27;66194;-35
2022/04/06 02:34:53;;;;;;;20.30;18.27;;;;;;;30.66;60.09;101171.69;5076495;27;70627;-35
2022/04/06 02:37:24;;;;;;;20.33;18.17;;;;;;;30.76;59.65;101176.66;5076627;27;66937;-35
2022/04/06 02:39:55;;;;;;;20.10;17.83;;;;;;;30.80;60.11;101177.94;5076675;27;70546;-34
2022/04/06 02:42:26;;;;;;;18.38;16.55;;;;;;;30.78;59.76;101169.97;5076701;28;66240;-34
2022/04/06 02:44:57;;;;;;;18.52;16.55;;;;;;;30.86;59.31;101166.25;5076159;28;71310;-34
2022/04/06 02:47:28;;;;;;;18.92;17.00;;;;;;;30.89;59.63;101171.22;5076453;28;65756;-34
2022/04/06 02:49:58;;;;;;;18.38;16.48;;;;;;;30.93;59.16;101164.34;5075767;27;69533;-34
2022/04/06 02:52:29;;;;;;;19.38;16.25;;;;;;;30.95;59.67;101164.94;5076065;27;66072;-34
2022/04/06 02:55:00;;;;;;;18.63;16.63;;;;;;;30.97;59.37;101165.56;5076329;27;71136;-35
2022/04/06 02:57:31;;;;;;;17.00;15.43;;;;;;;30.95;59.12;101148.69;5076730;27;66450;-35
2022/04/06 03:00:02;;;;;;;17.58;15.70;;;;;;;30.95;59.10;101135.16;5075465;27;69634;-35
2022/04/06 03:02:34;;;;;;;17.08;15.32;;;;;;;31.02;58.90;101138.69;5065988;27;65887;-34
2022/04/06 03:05:05;;;;;;;16.63;15.00;;;;;;;30.92;58.79;101113.91;5062997;28;69151;-34
2022/04/06 03:07:35;;;;;;;17.05;15.43;;;;;;;31.05;58.79;101134.72;5061835;28;66419;-34
2022/04/06 03:10:07;;;;;;;17.05;15.27;;;;;;;31.02;58.35;101122.41;5062291;28;69398;-34
2022/04/06 03:12:38;;;;;;;16.27;14.83;;;;;;;31.07;58.46;101124.50;5062165;28;65058;-34
2022/04/06 03:15:10;;;;;;;16.10;14.57;;;;;;;31.14;58.65;101127.97;5059828;28;70668;-35
2022/04/06 03:17:41;;;;;;;16.60;14.93;;;;;;;31.16;58.14;101124.00;5061011;28;66083;-35
2022/04/06 03:20:13;;;;;;;16.35;14.57;;;;;;;31.08;58.40;101099.88;5045012;28;69695;-34
2022/04/06 03:22:44;;;;;;;15.32;13.73;;;;;;;31.20;58.06;101127.13;5067776;28;65575;-35
2022/04/06 03:25:14;;;;;;;16.20;14.68;;;;;;;31.24;58.24;101122.09;5081649;28;70666;-35
2022/04/06 03:27:45;;;;;;;15.45;13.90;;;;;;;31.27;58.19;101127.09;5080625;28;66329;-34
2022/04/06 03:30:16;;;;;;;15.18;13.68;;;;;;;31.29;57.82;101116.88;5082238;27;70331;-34
2022/04/06 03:32:47;;;;;;;16.23;14.00;;;;;;;31.21;58.07;101098.16;5080710;28;66913;-34
2022/04/06 03:35:17;;;;;;;14.93;13.52;;;;;;;31.24;57.71;101097.72;5080932;28;70497;-35
2022/04/06 03:37:51;;;;;;;15.40;13.93;;;;;;;30.93;57.46;101047.88;5083013;28;67194;-34
2022/04/06 03:40:22;;;;;;;15.98;14.40;;;;;;;31.36;57.49;101112.25;5080624;28;70280;-34
2022/04/06 03:42:53;;;;;;;15.43;13.88;;;;;;;31.40;57.56;101110.78;5081379;27;67841;-35
2022/04/06 03:45:24;;;;;;;17.40;13.93;;;;;;;31.33;57.27;101088.28;5080340;28;70070;-35
2022/04/06 03:47:55;;;;;;;15.70;14.10;;;;;;;31.44;57.52;101098.44;5081910;27;67201;-34
2022/04/06 03:50:26;;;;;;;22.02;17.50;;;;;;;31.45;57.20;101089.25;5080271;27;69201;-35
2022/04/06 03:52:57;;;;;;;24.13;21.47;;;;;;;31.44;57.36;101081.34;5082632;27;66245;-35
2022/04/06 03:55:28;;;;;;;29.27;26.15;;;;;;;31.47;57.44;101087.16;5081239;27;68673;-35
2022/04/06 03:57:59;;;;;;;29.42;26.30;;;;;;;31.53;57.13;101091.69;5063119;28;67029;-34
2022/04/06 04:00:32;;;;;;;30.77;27.65;;;;;;;31.57;57.46;101098.34;5061466;28;69365;-34
2022/04/06 04:03:05;;;;;;;33.15;29.63;;;;;;;31.51;57.33;101082.13;5061713;28;66526;-34
2022/04/06 04:05:36;;;;;;;34.90;29.20;;;;;;;31.59;57.11;101095.41;5043814;28;69093;-35
2022/04/06 04:08:07;;;;;;;31.17;27.77;;;;;;;31.60;57.18;101092.50;5060854;28;66079;-34
2022/04/06 04:10:38;;;;;;;30.33;27.20;;;;;;;31.66;57.25;101095.38;5060182;28;70095;-34
2022/04/06 04:13:11;;;;;;;30.17;26.88;;;;;;;31.61;56.93;101077.88;5060576;28;66520;-36
2022/04/06 04:15:42;;;;;;;29.83;26.60;;;;;;;31.69;56.66;101084.09;5061671;28;70060;-44
2022/04/06 04:18:13;;;;;;;31.65;26.45;;;;;;;31.64;56.77;101073.06;5058842;28;66041;-35
2022/04/06 04:20:45;;;;;;;30.40;26.90;;;;;;;31.72;57.09;101089.06;5061262;28;69865;-36
2022/04/06 04:23:16;;;;;;;28.85;25.35;;;;;;;31.76;56.93;101092.97;5074161;28;66147;-36
2022/04/06 04:25:47;;;;;;;29.45;25.70;;;;;;;31.75;56.38;101083.19;5049235;27;70782;-36
2022/04/06 04:28:17;;;;;;;27.35;24.42;;;;;;;31.77;56.22;101076.50;5036780;28;66130;-35
2022/04/06 04:30:48;;;;;;;28.05;24.98;;;;;;;31.80;56.14;101073.34;5046880;28;69385;-37
2022/04/06 04:33:19;;;;;;;27.73;25.00;;;;;;;31.85;56.65;101078.09;5039531;28;66733;-36
2022/04/06 04:35:51;;;;;;;27.07;24.37;;;;;;;31.84;56.29;101065.56;5051504;28;70075;-35
2022/04/06 04:38:21;;;;;;;26.92;24.13;;;;;;;31.81;55.99;101055.16;5040921;28;66856;-36
2022/04/06 04:41:13;;;;;;;26.80;23.92;;;;;;;31.78;56.31;101047.47;5050759;28;69821;-35
2022/04/06 04:43:43;;;;;;;27.08;24.15;;;;;;;31.82;56.53;101051.44;5046576;28;67592;-37
2022/04/06 04:46:15;;;;;;;29.10;23.83;;;;;;;31.94;56.04;101059.69;5043238;28;69221;-34
2022/04/06 04:48:46;;;;;;;27.00;23.38;;;;;;;31.90;56.35;101048.44;5036473;28;65394;-35
2022/04/06 04:51:17;;;;;;;24.65;22.08;;;;;;;31.91;56.23;101044.69;5038026;28;69361;-36
2022/04/06 04:53:48;;;;;;;25.20;22.43;;;;;;;31.93;56.07;101045.31;5038935;28;66054;-36
2022/04/06 04:56:19;;;;;;;24.17;21.75;;;;;;;31.89;55.95;101035.91;5039682;28;69375;-34
2022/04/06 04:58:51;;;;;;;25.38;22.70;;;;;;;31.98;56.10;101041.91;5021354;28;65229;-35
2022/04/06 05:01:22;;;;;;;23.67;21.27;;;;;;;32.01;56.20;101036.88;5040094;28;70287;-35
2022/04/06 05:03:52;;;;;;;23.38;20.98;;;;;;;32.02;55.59;101032.28;5040373;28;66224;-35
2022/04/06 05:06:23;;;;;;;23.52;21.02;;;;;;;32.07;55.71;101032.44;5036897;28;69191;-36
2022/04/06 05:08:55;;;;;;;22.80;20.50;;;;;;;32.09;55.88;101024.06;5023679;28;66347;-35
2022/04/06 05:11:27;;;;;;;22.15;19.95;;;;;;;32.11;56.06;101011.09;5006238;28;69893;-35
2022/04/06 05:13:57;;;;;;;21.43;19.30;;;;;;;32.09;55.56;101002.34;5022121;28;66035;-36
2022/04/06 05:16:28;;;;;;;20.55;18.55;;;;;;;32.15;55.45;101002.28;5040602;28;69328;-36
2022/04/06 05:19:01;;;;;;;22.00;19.65;;;;;;;32.17;55.35;101004.75;5006473;28;65594;-36
2022/04/06 05:21:31;;;;;;;25.42;19.67;;;;;;;32.15;55.68;100983.28;5039873;28;69272;-35
2022/04/06 05:24:04;;;;;;;20.85;18.70;;;;;;;32.24;55.34;100983.81;5043224;28;66214;-35
2022/04/06 05:26:41;;;;;;;20.08;18.15;;;;;;;32.21;55.62;100973.41;5059124;28;70448;-35
2022/04/06 05:29:13;;;;;;;;;;;;;;;31.95;55.79;100982.66;5061309;28;65890;-34
2022/04/06 05:31:46;;;;;;;20.00;18.10;;;;;;;32.26;55.67;100976.25;5061043;27;70020;-35
2022/04/06 05:34:17;;;;;;;19.73;17.85;;;;;;;32.25;55.45;100963.75;5041603;28;65486;-34
2022/04/06 05:36:49;;;;;;;19.70;17.75;;;;;;;32.25;55.26;100951.00;5058385;28;70116;-34
2022/04/06 05:39:20;;;;;;;18.58;16.92;;;;;;;32.33;55.28;100959.88;5059577;28;66075;-35
2022/04/06 05:41:51;;;;;;;18.17;16.43;;;;;;;32.33;55.26;100955.28;5059028;28;70499;-35
2022/04/06 05:44:22;;;;;;;17.85;16.27;;;;;;;32.33;55.06;100952.56;5061297;28;65957;-35
2022/04/06 05:47:05;;;;;;;18.50;16.58;;;;;;;32.35;55.28;100949.63;5041303;28;69890;-34
2022/04/06 05:49:35;;;;;;;21.20;16.30;;;;;;;32.35;55.14;100939.59;5059856;28;67637;-34
2022/04/06 05:52:08;;;;;;;18.80;17.00;;;;;;;32.39;55.08;100938.06;5060290;28;70196;-35
2022/04/06 05:54:39;;;;;;;18.38;16.67;;;;;;;32.40;55.21;100936.19;5058595;28;66482;-35
2022/04/06 05:57:10;;;;;;;17.02;15.52;;;;;;;32.40;55.27;100928.91;5060325;28;70474;-35
2022/04/06 05:59:41;;;;;;;16.85;15.43;;;;;;;32.43;55.17;100916.72;5058743;28;65640;-34
2022/04/06 06:02:13;;;;;;;18.08;16.15;;;;;;;32.44;55.14;100908.34;5059898;28;69119;-35
2022/04/06 06:04:43;;;;;;;17.50;15.23;;;;;;;32.44;55.04;100908.34;5058969;28;65077;-35
2022/04/06 06:07:14;;;;;;;20.70;15.43;;;;;;;32.46;55.09;100900.03;5057594;28;69672;-35
2022/04/06 06:09:46;;;;;;;17.15;15.05;;;;;;;32.53;54.82;100906.16;5059830;28;66027;-35
2022/04/06 06:12:17;;;;;;;18.35;15.45;;;;;;;32.45;54.85;100876.59;5059684;28;68812;-35
2022/04/06 06:14:50;;;;;;;16.08;14.65;;;;;;;32.56;54.95;100894.03;5057729;28;66188;-35
2022/04/06 06:17:21;;;;;;;16.60;15.00;;;;;;;32.60;54.98;100884.38;5058800;28;69457;-35
2022/04/06 06:19:51;;;;;;;14.98;13.73;;;;;;;32.40;54.82;100850.16;5059872;28;65352;-35
2022/04/06 06:22:22;;;;;;;17.08;14.85;;;;;;;32.64;54.88;100874.69;5058193;28;70493;-35
2022/04/06 06:24:52;;;;;;;17.27;14.48;;;;;;;32.68;54.75;100870.44;5059708;28;66360;-35
2022/04/06 06:27:24;;;;;;;15.07;13.25;;;;;;;32.70;54.83;100862.88;5058532;28;70026;-35
2022/04/06 06:29:55;;;;;;;16.15;14.52;;;;;;;32.71;54.91;100862.66;5058538;28;66917;-34
2022/04/06 06:32:26;;;;;;;16.08;14.38;;;;;;;32.74;54.74;100847.78;5059467;28;70537;-34
2022/04/06 06:34:56;;;;;;;18.65;13.70;;;;;;;32.75;54.75;100844.00;5041828;28;66673;-34
2022/04/06 06:37:27;;;;;;;15.18;13.75;;;;;;;32.79;54.82;100839.75;5061096;28;70134;-34
2022/04/06 06:39:59;;;;;;;16.77;13.20;;;;;;;32.83;54.66;100838.22;5063337;28;65984;-35
2022/04/06 06:42:30;;;;;;;15.02;13.52;;;;;;;32.86;54.47;100835.03;5059806;28;69838;-35
2022/04/06 06:45:00;;;;;;;14.38;13.02;;;;;;;32.88;54.64;100816.63;5055117;28;65523;-35
2022/04/06 06:47:31;;;;;;;15.13;13.43;;;;;;;32.92;54.59;100812.34;5060929;28;69164;-35
2022/04/06 06:50:03;;;;;;;14.43;13.27;;;;;;;32.93;54.61;100800.44;5059225;28;65258;-35
2022/04/06 06:52:36;;;;;;;14.68;13.45;;;;;;;32.87;54.26;100790.50;5061632;28;69864;-35
2022/04/06 06:55:18;;;;;;;14.38;12.90;;;;;;;32.60;54.39;100735.00;5061751;28;65395;-35
2022/04/06 06:57:49;;;;;;;14.48;13.05;;;;;;;33.02;54.45;100786.53;5044239;28;70456;-34
2022/04/06 07:00:20;;;;;;;13.63;12.32;;;;;;;33.08;54.16;100785.56;5042173;28;66458;-34
2022/04/06 07:02:51;;;;;;;14.05;12.90;;;;;;;33.10;54.42;100783.44;5039452;28;70371;-34
2022/04/06 07:05:22;;;;;;;14.05;12.68;;;;;;;33.12;54.36;100767.72;5042551;28;66283;-34
2022/04/06 07:07:55;;;;;;;12.70;11.73;;;;;;;32.68;54.14;100702.03;5042403;28;70178;-34
2022/04/06 07:10:26;;;;;;;13.20;11.93;;;;;;;33.21;54.34;100773.59;5041493;28;66247;-34
2022/04/06 07:12:57;;;;;;;13.90;12.73;;;;;;;33.19;53.99;100760.25;5042885;28;69914;-34
2022/04/06 07:15:28;;;;;;;14.73;12.05;;;;;;;33.26;54.17;100766.38;5043029;28;66218;-35
2022/04/06 07:17:59;;;;;;;13.47;12.20;;;;;;;33.29;54.06;100763.22;5041455;28;70228;-35
2022/04/06 07:20:30;;;;;;;12.85;11.60;;;;;;;33.31;53.94;100754.81;5043433;28;66293;-35
2022/04/06 07:23:00;;;;;;;12.05;11.05;;;;;;;33.36;53.78;100758.44;5065381;28;70395;-35
2022/04/06 07:25:32;;;;;;;12.18;11.18;;;;;;;33.40;53.78;100753.34;5081872;27;65466;-35
2022/04/06 07:28:04;;;;;;;16.83;11.25;;;;;;;33.42;53.69;100750.41;5083002;27;69420;-34
2022/04/06 07:30:36;;;;;;;12.35;11.25;;;;;;;33.38;53.61;100733.75;5083391;28;66606;-34
2022/04/06 07:33:09;;;;;;;13.25;12.10;;;;;;;33.46;53.59;100746.97;5082451;27;70035;-36
2022/04/06 07:35:40;;;;;;;12.45;11.30;;;;;;;33.52;53.47;100739.75;5082720;27;65726;-34
2022/04/06 07:38:12;;;;;;;12.07;10.93;;;;;;;33.52;53.87;100734.31;5081949;27;70188;-34
2022/04/06 07:40:42;;;;;;;12.70;11.52;;;;;;;33.56;53.44;100730.03;5083095;27;64957;-33
2022/04/06 07:43:13;;;;;;;11.27;10.48;;;;;;;33.59;53.44;100729.56;5082142;27;68849;-34
2022/04/06 07:45:44;;;;;;;11.07;10.30;;;;;;;33.55;53.57;100709.38;5081078;27;65904;-34
2022/04/06 07:48:15;;;;;;;11.80;10.90;;;;;;;33.58;53.21;100711.59;5081009;28;70128;-34
2022/04/06 07:50:47;;;;;;;11.02;10.35;;;;;;;33.54;53.40;100699.53;5081999;27;66324;-34
2022/04/06 07:53:18;;;;;;;12.27;11.27;;;;;;;33.58;53.48;100708.88;5081523;27;69129;-34
2022/04/06 07:55:50;;;;;;;11.45;10.48;;;;;;;33.64;53.29;100716.06;5081389;28;65209;-34
2022/04/06 07:58:21;;;;;;;15.35;10.95;;;;;;;33.67;53.32;100720.19;5040774;28;70380;-35
2022/04/06 08:00:52;;;;;;;11.55;10.65;;;;;;;33.65;53.15;100716.88;5039788;28;66795;-35
2022/04/06 08:03:23;;;;;;;16.73;10.50;;;;;;;33.71;52.99;100710.47;5023907;28;69996;-34
2022/04/06 08:05:56;;;;;;;12.30;10.77;;;;;;;33.67;52.96;100698.44;5039916;28;65426;-34
2022/04/06 08:08:26;;;;;;;11.65;10.63;;;;;;;33.73;52.92;100698.25;5041408;28;69828;-33
2022/04/06 08:10:57;;;;;;;10.68;9.90;;;;;;;33.73;53.10;100697.44;5039839;28;65788;-34
2022/04/06 08:13:28;;;;;;;11.60;10.57;;;;;;;33.71;52.52;100695.00;5040554;28;69781;-34
2022/04/06 08:15:59;;;;;;;11.68;10.68;;;;;;;33.75;52.73;100696.13;5039069;28;66574;-33
2022/04/06 08:18:30;;;;;;;11.13;10.20;;;;;;;33.74;52.91;100691.78;5041251;28;69191;-34
2022/04/06 08:21:01;;;;;;;11.45;10.40;;;;;;;33.76;52.81;100692.34;5021913;28;66145;-35
2022/04/06 08:23:32;;;;;;;10.10;9.40;;;;;;;33.78;52.62;100706.53;5072595;28;69652;-36
2022/04/06 08:26:03;;;;;;;11.97;9.67;;;;;;;33.77;52.81;100696.72;5079696;27;65070;-34
2022/04/06 08:28:33;;;;;;;11.30;10.27;;;;;;;33.81;52.77;100711.47;5039085;28;70361;-34
2022/04/06 08:31:05;;;;;;;10.18;9.30;;;;;;;33.84;52.51;100714.78;5041727;28;66156;-34
2022/04/06 08:33:42;;;;;;;10.55;9.65;;;;;;;33.78;52.83;100709.25;5040622;28;70491;-34
2022/04/06 08:36:13;;;;;;;10.27;9.40;;;;;;;33.81;52.49;100700.59;5039545;28;66515;-34
2022/04/06 08:38:44;;;;;;;10.10;9.35;;;;;;;33.88;52.57;100711.34;5022781;28;69877;-35
2022/04/06 08:41:16;;;;;;;9.80;9.15;;;;;;;33.81;52.57;100689.72;5005657;28;65501;-35
2022/04/06 08:43:47;;;;;;;10.27;9.68;;;;;;;33.90;52.49;100697.47;5039646;28;70241;-34
2022/04/06 08:46:19;;;;;;;9.90;9.05;;;;;;;33.89;52.49;100690.41;5039567;28;66092;-35
2022/04/06 08:48:52;;;;;;;9.60;8.90;;;;;;;33.90;52.22;100686.59;5039031;28;70182;-35
2022/04/06 08:51:22;;;;;;;9.00;8.45;;;;;;;33.93;52.31;100680.66;5040381;28;66799;-35
2022/04/06 08:53:54;;;;;;;9.57;8.87;;;;;;;33.89;52.43;100671.34;5040839;28;69273;-35
2022/04/06 08:56:25;;;;;;;9.63;8.87;;;;;;;33.91;52.63;100669.22;5042265;28;65309;-34
2022/04/06 08:58:56;;;;;;;9.10;8.38;;;;;;;33.81;52.84;100651.63;5058457;28;70116;-35
2022/04/06 09:01:31;;;;;;;9.07;8.27;;;;;;;33.94;52.54;100671.44;5042690;28;66678;-34
2022/04/06 09:04:02;;;;;;;8.85;8.25;;;;;;;33.88;52.72;100661.50;5059674;28;69941;-34
2022/04/06 09:06:53;;;;;;;9.35;8.60;;;;;;;33.81;52.78;100651.63;5059787;28;66073;-36
2022/04/06 09:09:24;;;;;;;9.53;8.90;;;;;;;33.85;52.87;100659.28;5058392;28;70364;-35
2022/04/06 09:11:55;;;;;;;10.57;8.80;;;;;;;33.87;52.65;100681.66;5060974;28;65292;-36
2022/04/06 09:14:30;;;;;;;9.52;8.68;;;;;;;33.88;52.57;100699.59;5060703;28;69168;-34
2022/04/06 09:17:06;;;;;;;8.63;8.13;;;;;;;33.89;52.84;100706.72;5059677;28;66222;-35
2022/04/06 09:19:39;;;;;;;9.70;8.48;;;;;;;33.87;52.72;100704.22;5043637;28;69818;-35
2022/04/06 09:22:09;;;;;;;9.88;8.68;;;;;;;33.88;52.77;100705.06;5062167;28;66723;-35
2022/04/06 09:24:40;;;;;;;9.98;9.13;;;;;;;33.90;52.54;100705.63;5080732;28;69687;-35
2022/04/06 09:27:10;;;;;;;9.35;8.55;;;;;;;33.88;52.73;100699.59;5080935;27;66356;-34
2022/04/06 09:29:49;;;;;;;10.90;9.90;;;;;;;33.84;52.89;100704.72;5079669;27;70534;-35
2022/04/06 09:32:20;;;;;;;10.48;9.65;;;;;;;33.85;52.91;100700.09;5081374;27;65973;-34
2022/04/06 09:35:25;;;;;;;11.57;8.35;;;;;;;33.71;53.30;100685.97;5078445;28;69363;-35
2022/04/06 09:38:22;;;;;;;11.27;9.88;;;;;;;33.68;53.21;100679.13;5081375;27;66261;-37
2022/04/06 09:41:06;;;;;;;9.73;8.82;;;;;;;33.68;53.37;100670.97;5080461;27;69877;-35
2022/04/06 09:43:37;;;;;;;9.38;8.57;;;;;;;33.74;53.61;100680.03;5078743;28;66417;-34
2022/04/06 09:49:18;;;;;;;9.13;8.32;;;;;;;33.31;53.06;100625.13;5058947;28;65993;-35
2022/04/06 09:51:51;;;;;;;9.20;8.45;;;;;;;33.66;53.30;100675.84;5058955;28;69419;-35
2022/04/06 09:54:26;;;;;;;9.15;8.48;;;;;;;33.52;53.36;100663.59;5060054;28;64905;-44
2022/04/06 09:56:58;;;;;;;10.43;9.25;;;;;;;33.25;55.36;100685.09;5050986;28;70429;-35
2022/04/06 09:59:29;;;;;;;;;;;;;;;32.74;55.88;100700.28;5042662;28;66603;-35
2022/04/06 10:02:01;;;;;;;22.90;14.95;;;;;;;32.86;54.88;100687.50;5041531;28;70068;-36
2022/04/06 10:04:32;;;;;;;;;;;;;;;32.44;55.98;100699.28;5046772;28;66207;-35
2022/04/06 10:07:04;;;;;;;47.50;14.75;;;;;;;33.02;54.70;100697.69;5039563;28;68967;-34
2022/04/06 10:09:35;;;;;;;95.80;16.73;;;;;;;33.10;54.19;100694.59;5037254;28;66189;-35
2022/04/06 10:12:06;;;;;;;36.22;11.10;;;;;;;33.19;53.41;100681.44;5027290;28;69192;-34
2022/04/06 10:14:38;;;;;;;34.85;11.73;;;;;;;33.27;53.54;100700.09;5045525;28;65697;-34
2022/04/06 10:17:08;;;;;;;28.50;11.40;;;;;;;33.32;54.57;100696.63;5040886;28;69892;-34
2022/04/06 10:19:45;;;;;;;20.08;14.50;;;;;;;32.52;55.39;100630.28;5043357;28;66073;-34
2022/04/06 10:23:05;;;;;;;28.92;16.67;;;;;;;32.51;55.95;100682.91;5050547;28;70207;-35
2022/04/06 10:26:00;;;;;;;34.83;17.65;;;;;;;32.71;56.33;100735.00;5011373;28;65840;-34
2022/04/06 10:28:34;;;;;;;33.22;16.35;;;;;;;32.63;56.34;100734.53;5041212;28;70130;-37
2022/04/06 10:31:29;;;;;;;35.08;16.27;;;;;;;32.41;57.42;100745.91;5040477;28;65157;-34
2022/04/06 10:34:22;;;;;;;15.07;13.48;;;;;;;32.22;57.50;100734.31;5041583;28;69462;-35
2022/04/06 10:37:06;;;;;;;21.92;13.15;;;;;;;31.96;58.81;100694.06;5052239;28;65772;-35
2022/04/06 10:40:35;;;;;;;21.20;14.23;;;;;;;32.27;59.24;100758.06;5048779;28;70593;-35
2022/04/06 10:43:48;;;;;;;27.63;16.92;;;;;;;32.32;59.22;100760.91;5035167;28;66123;-35
2022/04/06 10:46:34;;;;;;;25.95;15.27;;;;;;;32.16;59.74;100769.72;5047275;28;70079;-35
2022/04/06 10:49:12;;;;;;;21.60;14.93;;;;;;;32.19;59.95;100770.06;5046315;27;66043;-34
2022/04/06 10:51:56;;;;;;;27.25;15.20;;;;;;;31.69;60.53;100699.81;5043744;28;70140;-34
2022/04/06 10:54:47;;;;;;;33.83;15.75;;;;;;;32.07;61.15;100781.94;5053493;28;65960;-34
2022/04/06 10:57:18;;;;;;;24.00;16.27;;;;;;;32.09;61.49;100790.69;5040328;28;70217;-36
2022/04/06 11:00:13;;;;;;;24.35;15.40;;;;;;;32.00;62.37;100795.59;5050051;28;66208;-35
2022/04/06 11:02:50;;;;;;;28.60;14.15;;;;;;;32.03;63.08;100793.25;5047570;28;69998;-36
2022/04/06 11:05:44;;;;;;;36.80;13.50;;;;;;;32.26;62.61;100825.09;5054138;28;66897;-35
2022/04/06 11:11:45;;;;;;;20.77;13.13;;;;;;;32.53;60.90;100840.19;5051294;28;66934;-34
2022/04/06 11:14:25;;;;;;;28.80;12.25;;;;;;;32.66;60.85;100857.09;5044610;28;70414;-35
2022/04/06 11:16:55;;;;;;;16.27;12.00;;;;;;;32.76;60.14;100856.50;5047598;28;66315;-35
2022/04/06 11:19:28;;;;;;;19.17;13.05;;;;;;;32.76;60.23;100863.84;5047412;28;70704;-35
2022/04/06 11:21:59;;;;;;;25.50;12.48;;;;;;;32.83;59.79;100873.53;5044250;28;66552;-35
2022/04/06 11:24:31;;;;;;;26.08;12.43;;;;;;;32.83;59.85;100868.09;5041483;28;71187;-34
2022/04/06 11:27:01;;;;;;;21.60;12.30;;;;;;;32.87;60.23;100868.44;5041164;28;64892;-34
2022/04/06 11:29:46;;;;;;;14.38;11.18;;;;;;;32.79;59.92;100850.63;5028714;28;69816;-35
2022/04/06 11:32:17;;;;;;;16.88;11.30;;;;;;;32.88;59.87;100873.66;5043843;28;68063;-35
2022/04/06 11:34:47;;;;;;;21.05;11.50;;;;;;;32.89;59.81;100872.59;5059857;28;70268;-35
2022/04/06 11:37:18;;;;;;;17.67;11.57;;;;;;;32.86;59.94;100875.78;5042542;28;64168;-35
2022/04/06 11:39:49;;;;;;;15.60;10.80;;;;;;;32.91;59.75;100889.50;5062281;28;69133;-35
2022/04/06 11:42:21;;;;;;;14.50;11.23;;;;;;;32.90;60.02;100889.72;5059492;28;65541;-35
2022/04/06 11:44:52;;;;;;;16.23;11.60;;;;;;;32.90;59.96;100890.56;5058139;28;69208;-35
2022/04/06 11:47:31;;;;;;;17.55;12.07;;;;;;;32.88;60.42;100898.13;5061941;28;66442;-34
2022/04/06 11:50:06;;;;;;;18.88;11.52;;;;;;;32.53;60.16;100834.75;5061695;28;70163;-34